createdAt,value
2017-11-10T00:00:00.979Z,6.20
2017-11-10T00:02:29.474Z,6.20
2017-11-10T00:04:57.953Z,6.20
2017-11-10T00:07:26.448Z,6.20
2017-11-10T00:09:54.978Z,6.20
2017-11-10T00:12:23.488Z,6.20
2017-11-10T00:14:52.015Z,6.20
2017-11-10T00:17:20.509Z,6.20
2017-11-10T00:19:49.059Z,6.20
2017-11-10T00:24:47.008Z,6.30
2017-11-10T00:27:15.499Z,6.30
2017-11-10T00:29:44.012Z,6.30
2017-11-10T00:32:13.699Z,6.20
2017-11-10T00:39:41.927Z,6.40
2017-11-10T00:42:10.404Z,6.40
2017-11-10T00:44:38.966Z,6.40
2017-11-10T00:47:07.589Z,6.50
2017-11-10T00:49:36.089Z,6.40
2017-11-10T00:57:04.373Z,6.60
2017-11-10T01:02:02.408Z,6.60
2017-11-10T01:04:31.125Z,6.50
2017-11-10T01:06:59.630Z,6.50
2017-11-10T01:46:54.614Z,6.70
2017-11-10T01:49:27.772Z,6.70
2017-11-10T01:51:56.284Z,6.60
2017-11-10T01:54:24.600Z,6.60
2017-11-10T01:56:52.395Z,6.60
2017-11-10T01:59:21.679Z,6.60
2017-11-10T02:01:49.814Z,6.50
2017-11-10T02:04:18.318Z,6.60
2017-11-10T02:06:46.798Z,6.50
2017-11-10T02:09:16.036Z,6.50
2017-11-10T02:11:44.512Z,6.50
2017-11-10T02:14:12.996Z,6.50
2017-11-10T02:21:44.166Z,6.60
2017-11-10T02:34:13.733Z,6.70
2017-11-10T02:36:41.918Z,6.70
2017-11-10T02:39:10.072Z,6.60
2017-11-10T02:41:38.611Z,6.60
2017-11-10T02:44:07.138Z,6.60
2017-11-10T02:46:35.715Z,6.60
2017-11-10T02:49:03.907Z,6.60
2017-11-10T02:51:32.479Z,6.60
2017-11-10T02:54:00.620Z,6.60
2017-11-10T02:56:28.791Z,6.60
2017-11-10T02:58:57.297Z,6.60
2017-11-10T03:01:26.627Z,6.60
2017-11-10T03:03:55.013Z,6.50
2017-11-10T03:06:24.486Z,6.50
2017-11-10T03:08:53.762Z,6.50
2017-11-10T03:11:23.598Z,6.50
2017-11-10T03:13:51.365Z,6.50
2017-11-10T03:16:19.321Z,6.50
2017-11-10T03:18:47.814Z,6.60
2017-11-10T03:21:16.307Z,6.60
2017-11-10T03:23:44.834Z,6.50
2017-11-10T03:31:12.300Z,6.70
2017-11-10T03:33:40.875Z,6.70
2017-11-10T03:36:09.369Z,6.60
2017-11-10T03:38:38.647Z,6.60
2017-11-10T03:41:07.134Z,6.60
2017-11-10T03:43:35.616Z,6.60
2017-11-10T03:46:03.466Z,6.70
2017-11-10T03:48:31.942Z,6.70
2017-11-10T03:51:00.434Z,6.70
2017-11-10T03:53:28.924Z,6.70
2017-11-10T03:55:56.729Z,6.70
2017-11-10T03:58:26.024Z,6.80
2017-11-10T04:00:54.554Z,6.80
2017-11-10T04:03:23.036Z,6.80
2017-11-10T04:05:52.691Z,6.80
2017-11-10T04:08:21.297Z,6.80
2017-11-10T04:10:49.823Z,6.80
2017-11-10T05:21:56.707Z,7.10
2017-11-10T05:30:55.395Z,7.10
2017-11-10T05:33:23.779Z,7.10
2017-11-10T05:44:51.467Z,7.20
2017-11-10T05:47:21.164Z,7.20
2017-11-10T05:49:49.565Z,7.20
2017-11-10T05:52:41.436Z,7.20
2017-11-10T06:01:36.824Z,7.30
2017-11-10T06:04:04.443Z,7.30
2017-11-10T06:30:13.344Z,7.40
2017-11-10T06:33:04.599Z,7.40
2017-11-10T06:49:55.362Z,7.60
2017-11-10T06:55:14.729Z,7.60
2017-11-10T06:57:43.307Z,7.60
2017-11-10T07:08:05.477Z,7.60
2017-11-10T07:18:50.031Z,7.70
2017-11-10T07:29:06.263Z,7.80
2017-11-10T07:31:34.963Z,7.70
2017-11-10T07:34:03.381Z,7.70
2017-11-10T07:36:31.648Z,7.70
2017-11-10T07:39:00.096Z,7.60
2017-11-10T07:41:28.631Z,7.70
2017-11-10T07:43:57.102Z,7.70
2017-11-10T07:49:41.358Z,7.70
2017-11-10T08:36:59.490Z,7.90
2017-11-10T08:39:27.970Z,7.90
2017-11-10T08:41:56.488Z,7.80
2017-11-10T08:44:25.004Z,7.80
2017-11-10T08:46:55.479Z,7.90
2017-11-10T08:49:24.166Z,7.90
2017-11-10T08:51:53.496Z,7.90
2017-11-10T08:54:45.304Z,7.80
2017-11-10T08:57:19.218Z,7.80
2017-11-10T08:59:48.957Z,7.80
2017-11-10T09:05:30.518Z,7.80
2017-11-10T09:07:59.742Z,7.90
2017-11-10T09:12:59.318Z,8.20
2017-11-10T09:15:27.916Z,8.20
2017-11-10T09:20:25.689Z,8.30
2017-11-10T09:30:33.996Z,8.20
2017-11-10T09:33:22.147Z,8.10
2017-11-10T09:35:53.092Z,7.90
2017-11-10T09:41:36.597Z,8.40
2017-11-10T09:44:06.703Z,8.40
2017-11-10T09:49:34.464Z,8.50
2017-11-10T09:52:26.964Z,8.30
2017-11-10T09:55:02.433Z,8.40
2017-11-10T09:57:35.973Z,8.50
2017-11-10T10:00:09.625Z,8.40
2017-11-10T10:02:39.805Z,8.40
2017-11-10T10:05:18.241Z,8.40
2017-11-10T10:40:27.729Z,9.00
2017-11-10T10:43:13.566Z,8.90
2017-11-10T10:45:44.952Z,8.80
2017-11-10T10:50:44.890Z,8.80
2017-11-10T10:53:14.552Z,8.60
2017-11-10T10:55:49.360Z,8.60
2017-11-10T10:58:17.856Z,8.60
2017-11-10T11:00:47.000Z,8.60
2017-11-10T11:03:15.538Z,8.50
2017-11-10T11:05:45.503Z,8.60
2017-11-10T11:10:43.145Z,8.60
2017-11-10T11:19:05.683Z,8.60
2017-11-10T11:21:33.454Z,8.70
2017-11-10T11:24:02.040Z,8.70
2017-11-10T11:26:30.580Z,8.70
2017-11-10T11:28:59.054Z,8.70
2017-11-10T11:34:21.305Z,8.70
2017-11-10T11:36:50.116Z,8.60
2017-11-10T11:39:18.715Z,8.60
2017-11-10T11:41:49.491Z,8.50
2017-11-10T11:44:18.157Z,8.50
2017-11-10T11:46:55.840Z,8.60
2017-11-10T11:49:24.107Z,8.60
2017-11-10T11:54:27.975Z,8.40
2017-11-10T11:56:57.125Z,8.40
2017-11-10T11:59:37.973Z,8.50
2017-11-10T12:02:27.362Z,8.40
2017-11-10T12:04:55.984Z,8.40
2017-11-10T12:07:26.825Z,8.40
2017-11-10T12:09:55.171Z,8.40
2017-11-10T14:24:51.424Z,9.20
2017-11-10T16:33:06.945Z,7.50
2017-11-10T16:35:35.640Z,7.50
2017-11-10T16:47:02.937Z,7.30
2017-11-10T16:55:39.886Z,7.20
2017-11-10T17:01:15.360Z,7.10
2017-11-10T17:03:46.563Z,7.10
2017-11-10T17:24:53.156Z,6.70
2017-11-10T17:42:30.721Z,6.50
2017-11-10T17:44:59.572Z,6.50
2017-11-10T17:56:56.410Z,6.50
2017-11-10T18:02:47.478Z,6.50
2017-11-10T18:08:22.666Z,6.40
2017-11-10T18:10:51.373Z,6.40
2017-11-10T18:22:05.775Z,6.30
2017-11-10T18:30:41.363Z,6.20
2017-11-10T20:44:22.211Z,5.50
2017-11-10T20:46:59.882Z,5.50
2017-11-10T20:49:28.450Z,5.40
2017-11-10T20:51:57.164Z,5.40
2017-11-10T20:54:26.985Z,5.40
2017-11-10T20:57:01.910Z,5.40
2017-11-10T20:59:36.367Z,5.30
2017-11-10T21:02:04.638Z,5.30
2017-11-10T21:04:33.395Z,5.30
2017-11-10T21:10:04.445Z,5.30
2017-11-10T21:15:36.296Z,5.20
2017-11-10T21:18:05.020Z,5.20
2017-11-10T21:20:39.486Z,5.20
2017-11-10T21:23:08.250Z,5.20
2017-11-10T21:25:36.741Z,5.10
2017-11-10T21:31:17.314Z,5.20
2017-11-10T21:49:14.280Z,5.10
2017-11-10T23:39:12.805Z,5.20
